createdAt,value
2016-07-13T00:00:50.676Z,0
2016-07-13T00:01:50.522Z,0
2016-07-13T00:02:50.762Z,0
2016-07-13T00:03:50.750Z,0
2016-07-13T00:04:50.459Z,0
2016-07-13T00:05:50.579Z,0
2016-07-13T00:06:50.543Z,0
2016-07-13T00:07:50.559Z,0
2016-07-13T00:08:50.725Z,0
2016-07-13T00:09:50.676Z,0
2016-07-13T00:10:50.471Z,0
2016-07-13T00:11:50.719Z,0
2016-07-13T00:12:50.552Z,0
2016-07-13T00:13:50.551Z,0
2016-07-13T00:14:50.523Z,0
2016-07-13T00:15:50.534Z,0
2016-07-13T00:16:50.469Z,0
2016-07-13T00:17:50.521Z,0
2016-07-13T00:18:50.484Z,0
2016-07-13T00:19:50.485Z,0
2016-07-13T00:20:50.473Z,0
2016-07-13T00:21:50.453Z,0
2016-07-13T00:22:50.450Z,0
2016-07-13T00:23:50.419Z,0
2016-07-13T00:24:50.445Z,0
2016-07-13T00:25:50.512Z,0
2016-07-13T00:26:50.456Z,0
2016-07-13T00:27:50.435Z,0
2016-07-13T00:28:50.543Z,0
2016-07-13T00:29:50.546Z,0
2016-07-13T00:30:50.586Z,0
2016-07-13T00:31:50.571Z,0
2016-07-13T00:32:50.481Z,0
2016-07-13T00:33:50.426Z,0
2016-07-13T00:34:50.495Z,0
2016-07-13T00:35:50.498Z,0
2016-07-13T00:36:50.471Z,0
2016-07-13T00:37:50.449Z,0
2016-07-13T00:38:50.457Z,0
2016-07-13T00:39:50.444Z,0
2016-07-13T00:40:50.620Z,0
2016-07-13T00:41:50.430Z,0
2016-07-13T00:42:50.499Z,0
2016-07-13T00:43:50.451Z,0
2016-07-13T00:44:50.495Z,0
2016-07-13T00:45:50.464Z,0
2016-07-13T00:46:50.464Z,0
2016-07-13T00:47:50.540Z,0
2016-07-13T00:48:50.530Z,0
2016-07-13T00:49:50.491Z,0
2016-07-13T00:50:50.494Z,0
2016-07-13T00:51:50.463Z,0
2016-07-13T00:52:50.433Z,0
2016-07-13T00:53:50.516Z,0
2016-07-13T00:54:50.447Z,0
2016-07-13T00:55:50.512Z,0
2016-07-13T00:56:50.457Z,0
2016-07-13T00:57:50.468Z,0
2016-07-13T00:58:50.449Z,0
2016-07-13T00:59:50.459Z,0
2016-07-13T01:00:50.525Z,0
2016-07-13T01:01:50.496Z,0
2016-07-13T01:02:50.450Z,0
2016-07-13T01:03:50.496Z,0
2016-07-13T01:04:50.491Z,0
2016-07-13T01:05:50.451Z,0
2016-07-13T01:06:50.471Z,0
2016-07-13T01:07:50.457Z,0
2016-07-13T01:08:50.489Z,0
2016-07-13T01:09:50.491Z,0
2016-07-13T01:10:50.473Z,0
2016-07-13T01:11:50.512Z,0
2016-07-13T01:12:50.528Z,0
2016-07-13T01:13:50.463Z,0
2016-07-13T01:14:50.440Z,0
2016-07-13T01:15:50.517Z,0
2016-07-13T01:16:50.489Z,0
2016-07-13T01:17:50.513Z,0
2016-07-13T01:18:50.495Z,0
2016-07-13T01:19:50.477Z,0
2016-07-13T01:20:50.529Z,0
2016-07-13T01:21:50.471Z,0
2016-07-13T01:22:50.436Z,0
2016-07-13T01:23:50.480Z,0
2016-07-13T01:24:50.480Z,0
2016-07-13T01:25:50.499Z,0
2016-07-13T01:26:50.486Z,0
2016-07-13T01:27:50.468Z,0
2016-07-13T01:28:50.501Z,0
2016-07-13T01:29:50.547Z,0
2016-07-13T01:30:50.466Z,0
2016-07-13T01:31:50.507Z,0
2016-07-13T01:32:50.466Z,0
2016-07-13T01:33:50.434Z,0
2016-07-13T01:34:50.492Z,0
2016-07-13T01:35:50.508Z,0
2016-07-13T01:36:50.477Z,0
2016-07-13T01:37:50.474Z,0
2016-07-13T01:38:50.466Z,0
2016-07-13T01:39:50.479Z,0
2016-07-13T01:40:50.466Z,0
2016-07-13T01:41:50.419Z,0
2016-07-13T01:42:50.464Z,0
2016-07-13T01:43:50.483Z,0
2016-07-13T01:44:50.439Z,0
2016-07-13T01:45:50.484Z,0
2016-07-13T01:46:50.498Z,0
2016-07-13T01:47:50.520Z,0
2016-07-13T01:48:50.503Z,0
2016-07-13T01:49:50.491Z,0
2016-07-13T01:50:50.483Z,0
2016-07-13T01:51:50.490Z,0
2016-07-13T01:52:50.498Z,0
2016-07-13T01:53:50.520Z,0
2016-07-13T01:54:50.509Z,0
2016-07-13T01:55:50.489Z,0
2016-07-13T01:56:50.525Z,0
2016-07-13T01:57:50.502Z,0
2016-07-13T01:58:50.468Z,0
2016-07-13T01:59:50.501Z,0
2016-07-13T02:00:50.474Z,0
2016-07-13T02:01:50.464Z,0
2016-07-13T02:02:50.458Z,0
2016-07-13T02:03:50.454Z,0
2016-07-13T02:04:50.477Z,0
2016-07-13T02:05:50.513Z,0
2016-07-13T02:06:50.472Z,0
2016-07-13T02:07:50.491Z,0
2016-07-13T02:08:50.431Z,0
2016-07-13T02:09:50.510Z,0
2016-07-13T02:10:50.436Z,0
2016-07-13T02:11:50.447Z,0
2016-07-13T02:12:50.528Z,0
2016-07-13T02:13:50.558Z,0
2016-07-13T02:14:50.486Z,0
2016-07-13T02:15:50.512Z,0
2016-07-13T02:16:50.526Z,0
2016-07-13T02:17:50.552Z,0
2016-07-13T02:18:50.504Z,0
2016-07-13T02:19:50.484Z,0
2016-07-13T02:20:50.489Z,0
2016-07-13T02:21:50.489Z,0
2016-07-13T02:22:50.524Z,0
2016-07-13T02:23:50.523Z,0
2016-07-13T02:24:50.498Z,0
2016-07-13T02:25:50.529Z,0
2016-07-13T02:26:50.541Z,0
2016-07-13T02:27:50.488Z,0
2016-07-13T02:28:50.510Z,0
2016-07-13T02:29:50.557Z,0
2016-07-13T02:30:50.508Z,0
2016-07-13T02:31:50.480Z,0
2016-07-13T02:32:50.520Z,0
2016-07-13T02:33:50.486Z,0
2016-07-13T02:34:50.507Z,0
2016-07-13T02:35:50.510Z,0
2016-07-13T02:36:50.512Z,0
2016-07-13T02:37:50.491Z,0
2016-07-13T02:38:50.538Z,0
2016-07-13T02:39:50.472Z,0
2016-07-13T02:40:50.486Z,0
2016-07-13T02:41:50.525Z,4
2016-07-13T02:42:50.505Z,4
2016-07-13T02:43:50.548Z,0
2016-07-13T02:44:50.497Z,0
2016-07-13T02:45:50.481Z,4
2016-07-13T02:46:50.542Z,4
2016-07-13T02:47:50.491Z,4
2016-07-13T02:48:50.527Z,4
2016-07-13T02:49:50.546Z,4
2016-07-13T02:50:50.460Z,4
2016-07-13T02:51:50.525Z,4
2016-07-13T02:52:50.551Z,8
2016-07-13T02:53:50.523Z,8
2016-07-13T02:54:50.514Z,4
2016-07-13T02:55:50.568Z,8
2016-07-13T02:56:50.531Z,8
2016-07-13T02:57:50.480Z,12
2016-07-13T02:58:50.505Z,12
2016-07-13T02:59:50.555Z,12
2016-07-13T03:00:50.546Z,16
2016-07-13T03:01:50.580Z,16
2016-07-13T03:02:50.500Z,20
2016-07-13T03:03:50.504Z,20
2016-07-13T03:04:50.528Z,24
2016-07-13T03:05:50.536Z,24
2016-07-13T03:06:50.542Z,28
2016-07-13T03:07:50.584Z,28
2016-07-13T03:08:50.509Z,36
2016-07-13T03:09:50.493Z,36
2016-07-13T03:10:50.560Z,40
2016-07-13T03:11:50.558Z,48
2016-07-13T03:12:50.515Z,52
2016-07-13T03:13:50.566Z,60
2016-07-13T03:14:50.477Z,68
2016-07-13T03:15:50.503Z,72
2016-07-13T03:16:50.533Z,80
2016-07-13T03:17:50.478Z,88
2016-07-13T03:18:50.502Z,92
2016-07-13T03:19:50.512Z,100
2016-07-13T03:20:50.515Z,116
2016-07-13T03:21:50.557Z,124
2016-07-13T03:22:50.518Z,136
2016-07-13T03:23:50.539Z,148
2016-07-13T03:24:50.545Z,152
2016-07-13T03:25:50.490Z,164
2016-07-13T03:26:50.518Z,184
2016-07-13T03:27:50.545Z,188
2016-07-13T03:28:50.559Z,208
2016-07-13T03:29:50.517Z,212
2016-07-13T03:30:50.510Z,224
2016-07-13T03:31:50.571Z,236
2016-07-13T03:32:50.526Z,260
2016-07-13T03:33:50.516Z,240
2016-07-13T03:34:50.535Z,248
2016-07-13T03:35:50.610Z,272
2016-07-13T03:36:50.534Z,280
2016-07-13T03:37:50.605Z,316
2016-07-13T03:38:50.522Z,304
2016-07-13T03:39:50.514Z,344
2016-07-13T03:40:50.532Z,316
2016-07-13T03:41:50.541Z,376
2016-07-13T03:42:50.540Z,452
2016-07-13T03:43:50.592Z,428
2016-07-13T03:44:50.528Z,492
2016-07-13T03:45:50.648Z,512
2016-07-13T03:46:50.528Z,504
2016-07-13T03:47:50.518Z,568
2016-07-13T03:48:50.536Z,604
2016-07-13T03:49:50.580Z,588
2016-07-13T03:50:50.893Z,672
2016-07-13T03:51:50.615Z,664
2016-07-13T03:52:50.542Z,740
2016-07-13T03:53:50.565Z,712
2016-07-13T03:54:50.568Z,712
2016-07-13T03:55:50.578Z,844
2016-07-13T03:56:50.609Z,780
2016-07-13T03:57:50.635Z,844
2016-07-13T03:58:50.569Z,956
2016-07-13T03:59:50.631Z,1088
2016-07-13T04:00:50.576Z,1156
2016-07-13T04:01:50.545Z,1196
2016-07-13T04:02:50.595Z,1156
2016-07-13T04:03:50.597Z,1236
2016-07-13T04:04:50.546Z,1292
2016-07-13T04:05:50.507Z,1360
2016-07-13T04:06:50.527Z,1456
2016-07-13T04:07:50.658Z,1584
2016-07-13T04:08:50.579Z,1484
2016-07-13T04:09:50.561Z,1616
2016-07-13T04:10:50.622Z,1820
2016-07-13T04:11:50.549Z,2016
2016-07-13T04:12:50.550Z,2116
2016-07-13T04:13:50.595Z,2188
2016-07-13T04:14:50.570Z,2244
2016-07-13T04:15:50.525Z,2124
2016-07-13T04:16:50.556Z,1884
2016-07-13T04:17:50.567Z,2004
2016-07-13T04:18:50.572Z,2136
2016-07-13T04:19:50.582Z,2216
2016-07-13T04:20:50.574Z,2240
2016-07-13T04:21:50.551Z,2204
2016-07-13T04:22:50.521Z,2016
2016-07-13T04:23:50.639Z,1708
2016-07-13T04:24:50.573Z,1508
2016-07-13T04:25:50.530Z,1660
2016-07-13T04:26:50.560Z,1672
2016-07-13T04:27:50.549Z,1504
2016-07-13T04:28:50.566Z,1476
2016-07-13T04:29:50.528Z,1564
2016-07-13T04:30:50.582Z,1760
2016-07-13T04:31:50.573Z,1616
2016-07-13T04:32:50.594Z,1384
2016-07-13T04:33:50.556Z,1440
2016-07-13T04:34:50.570Z,1788
2016-07-13T04:35:50.558Z,2036
2016-07-13T04:36:50.585Z,2060
2016-07-13T04:37:50.532Z,2032
2016-07-13T04:38:50.602Z,1952
2016-07-13T04:39:50.604Z,1996
2016-07-13T04:40:50.545Z,2000
2016-07-13T04:41:50.534Z,2228
2016-07-13T04:42:50.611Z,2432
2016-07-13T04:43:50.574Z,2072
2016-07-13T04:44:50.563Z,2508
2016-07-13T04:45:50.566Z,2784
2016-07-13T04:46:50.609Z,2796
2016-07-13T04:47:50.585Z,2868
2016-07-13T04:48:50.579Z,3196
2016-07-13T04:49:50.588Z,3036
2016-07-13T04:50:50.572Z,2884
2016-07-13T04:51:50.580Z,3032
2016-07-13T04:52:50.574Z,3156
2016-07-13T04:53:50.611Z,3272
2016-07-13T04:54:50.575Z,3332
2016-07-13T04:55:50.600Z,3120
2016-07-13T04:56:50.600Z,2960
2016-07-13T04:57:50.606Z,2864
2016-07-13T04:58:50.592Z,2948
2016-07-13T04:59:50.822Z,2788
2016-07-13T05:00:50.568Z,2792
2016-07-13T05:01:50.608Z,2392
2016-07-13T05:02:50.627Z,2328
2016-07-13T05:03:50.615Z,2524
2016-07-13T05:04:50.595Z,2632
2016-07-13T05:05:50.609Z,2796
2016-07-13T05:06:50.597Z,3196
2016-07-13T05:07:50.573Z,3220
2016-07-13T05:08:50.595Z,3256
2016-07-13T05:09:50.587Z,3344
2016-07-13T05:10:50.630Z,3032
2016-07-13T05:11:50.563Z,2612
2016-07-13T05:12:50.601Z,2252
2016-07-13T05:13:50.581Z,2136
2016-07-13T05:14:50.585Z,2188
2016-07-13T05:15:50.577Z,2292
2016-07-13T05:16:50.584Z,2428
2016-07-13T05:17:50.578Z,2532
2016-07-13T05:18:50.566Z,2588
2016-07-13T05:19:50.614Z,2668
2016-07-13T05:20:50.584Z,2804
2016-07-13T05:21:50.560Z,3012
2016-07-13T05:22:50.591Z,3060
2016-07-13T05:23:50.561Z,3280
2016-07-13T05:24:50.588Z,3456
2016-07-13T05:25:50.588Z,3616
2016-07-13T05:26:50.575Z,3844
2016-07-13T05:27:50.607Z,4208
2016-07-13T05:28:50.610Z,4908
2016-07-13T05:29:50.601Z,5424
2016-07-13T05:30:50.626Z,6072
2016-07-13T05:31:50.623Z,6828
2016-07-13T05:32:50.591Z,7384
2016-07-13T05:33:50.590Z,7380
2016-07-13T05:34:50.609Z,7028
2016-07-13T05:35:50.644Z,6412
2016-07-13T05:36:50.569Z,5412
2016-07-13T05:37:50.575Z,4524
2016-07-13T05:38:50.607Z,4040
2016-07-13T05:39:50.618Z,3820
2016-07-13T05:40:50.613Z,3712
2016-07-13T05:41:50.668Z,3764
2016-07-13T05:42:50.637Z,3596
2016-07-13T05:43:50.631Z,3572
2016-07-13T05:44:50.608Z,4096
2016-07-13T05:45:50.567Z,4528
2016-07-13T05:46:50.642Z,4984
2016-07-13T05:47:50.621Z,5212
2016-07-13T05:48:50.685Z,6208
2016-07-13T05:49:50.618Z,14068
2016-07-13T05:50:50.611Z,13692
2016-07-13T05:51:50.661Z,8472
2016-07-13T05:52:50.745Z,12556
2016-07-13T05:53:50.658Z,17728
2016-07-13T05:54:52.013Z,16832
2016-07-13T05:55:50.675Z,15352
2016-07-13T05:56:50.650Z,15320
2016-07-13T05:57:50.588Z,14000
2016-07-13T05:58:50.623Z,18720
2016-07-13T05:59:50.628Z,20384
2016-07-13T06:00:50.613Z,13604
2016-07-13T06:01:50.612Z,9200
2016-07-13T06:02:51.105Z,6672
2016-07-13T06:03:50.624Z,5688
2016-07-13T06:04:50.667Z,5284
2016-07-13T06:05:50.646Z,5172
2016-07-13T06:06:50.656Z,4668
2016-07-13T06:07:50.662Z,4552
2016-07-13T06:08:50.817Z,5204
2016-07-13T06:09:50.704Z,5296
2016-07-13T06:10:50.607Z,5400
2016-07-13T06:11:50.602Z,4792
2016-07-13T06:12:50.690Z,4508
2016-07-13T06:13:50.636Z,5092
2016-07-13T06:14:51.180Z,6056
2016-07-13T06:15:50.651Z,6984
2016-07-13T06:16:50.632Z,8080
2016-07-13T06:17:50.601Z,8432
2016-07-13T06:18:50.605Z,8964
2016-07-13T06:19:50.666Z,9756
2016-07-13T06:20:50.594Z,10172
2016-07-13T06:21:50.621Z,10436
2016-07-13T06:22:50.652Z,10404
2016-07-13T06:23:50.609Z,10104
2016-07-13T06:24:50.661Z,9776
2016-07-13T06:25:50.669Z,9376
2016-07-13T06:26:50.700Z,9616
2016-07-13T06:27:50.634Z,9584
2016-07-13T06:28:50.732Z,9876
2016-07-13T06:29:50.687Z,10056
2016-07-13T06:30:50.657Z,10176
2016-07-13T06:31:50.701Z,10604
2016-07-13T06:32:50.604Z,10788
2016-07-13T06:33:50.721Z,10500
2016-07-13T06:34:51.177Z,10652
2016-07-13T06:35:50.700Z,10808
2016-07-13T06:36:50.675Z,11096
2016-07-13T06:37:50.680Z,11204
2016-07-13T06:38:50.774Z,11492
2016-07-13T06:39:50.653Z,11696
2016-07-13T06:40:51.018Z,11576
2016-07-13T06:41:50.709Z,11300
2016-07-13T06:42:50.685Z,11316
2016-07-13T06:43:50.748Z,11252
2016-07-13T06:44:50.773Z,11212
2016-07-13T06:45:50.616Z,10880
2016-07-13T06:46:51.360Z,10636
2016-07-13T06:47:50.761Z,10448
2016-07-13T06:48:50.758Z,10340
2016-07-13T06:49:50.642Z,10236
2016-07-13T06:50:50.663Z,10268
2016-07-13T06:51:50.713Z,10308
2016-07-13T06:52:50.616Z,11800
2016-07-13T06:53:50.652Z,12764
2016-07-13T06:54:50.644Z,11288
2016-07-13T06:55:50.638Z,10368
2016-07-13T06:56:50.664Z,10240
2016-07-13T06:57:50.610Z,10128
2016-07-13T06:58:50.678Z,11476
2016-07-13T06:59:50.745Z,10596
2016-07-13T07:00:50.642Z,8648
2016-07-13T07:01:50.597Z,8156
2016-07-13T07:02:50.588Z,7688
2016-07-13T07:03:50.675Z,7400
2016-07-13T07:04:50.653Z,7088
2016-07-13T07:05:50.649Z,6984
2016-07-13T07:06:50.660Z,7316
2016-07-13T07:07:51.309Z,7748
2016-07-13T07:08:50.710Z,8300
2016-07-13T07:09:50.662Z,8544
2016-07-13T07:10:50.684Z,8416
2016-07-13T07:11:50.682Z,8540
2016-07-13T07:12:50.639Z,8488
2016-07-13T07:13:50.653Z,8504
2016-07-13T07:14:50.672Z,8544
2016-07-13T07:15:50.655Z,8608
2016-07-13T07:16:50.628Z,8592
2016-07-13T07:17:50.648Z,8608
2016-07-13T07:18:50.649Z,8644
2016-07-13T07:19:50.712Z,8544
2016-07-13T07:20:50.660Z,8508
2016-07-13T07:21:50.652Z,8608
2016-07-13T07:22:50.652Z,8792
2016-07-13T07:23:50.667Z,9256
2016-07-13T07:24:50.637Z,9432
2016-07-13T07:25:50.710Z,9484
2016-07-13T07:26:50.674Z,9640
2016-07-13T07:27:50.638Z,9712
2016-07-13T07:28:50.662Z,9552
2016-07-13T07:29:50.686Z,9524
2016-07-13T07:30:50.671Z,9480
2016-07-13T07:31:50.687Z,9496
2016-07-13T07:32:50.671Z,9472
2016-07-13T07:33:50.683Z,9348
2016-07-13T07:34:50.696Z,10244
2016-07-13T07:35:50.711Z,11600
2016-07-13T07:36:50.697Z,12224
2016-07-13T07:37:50.647Z,10212
2016-07-13T07:38:50.660Z,12892
2016-07-13T07:39:50.798Z,11908
2016-07-13T07:40:50.693Z,11196
2016-07-13T07:41:50.692Z,12216
2016-07-13T07:42:50.661Z,11536
2016-07-13T07:43:50.633Z,11152
2016-07-13T07:44:50.651Z,11308
2016-07-13T07:45:50.664Z,11600
2016-07-13T07:46:50.698Z,11844
2016-07-13T07:47:50.681Z,11704
2016-07-13T07:48:50.743Z,12568
2016-07-13T07:49:50.629Z,14212
2016-07-13T07:50:52.968Z,24960
2016-07-13T07:52:01.184Z,31136
2016-07-13T07:52:50.657Z,23424
2016-07-13T07:53:50.790Z,30784
2016-07-13T07:54:50.702Z,40768
2016-07-13T07:55:50.703Z,35328
2016-07-13T07:56:50.664Z,38464
2016-07-13T07:57:50.707Z,41952
2016-07-13T07:58:50.708Z,25120
2016-07-13T07:59:50.708Z,9140
2016-07-13T08:00:50.689Z,51616
2016-07-13T08:01:50.756Z,36800
2016-07-13T08:02:50.713Z,17632
2016-07-13T08:03:50.731Z,21280
2016-07-13T08:04:50.639Z,10344
2016-07-13T08:05:50.656Z,10012
2016-07-13T08:06:50.721Z,8832
2016-07-13T08:07:50.698Z,10052
2016-07-13T08:08:50.635Z,23456
2016-07-13T08:09:50.699Z,11600
2016-07-13T08:22:51.112Z,10632
2016-07-13T08:23:08.231Z,10880
2016-07-13T08:24:08.196Z,11396
2016-07-13T08:25:08.247Z,11840
2016-07-13T08:26:08.376Z,13912
2016-07-13T08:27:08.166Z,11960
2016-07-13T08:28:09.562Z,11028
2016-07-13T08:29:08.174Z,9880
2016-07-13T08:30:08.215Z,9696
2016-07-13T08:31:08.435Z,9432
2016-07-13T08:32:08.200Z,8348
2016-07-13T08:33:08.246Z,8096
2016-07-13T08:34:08.183Z,28896
2016-07-13T08:35:10.532Z,57440
2016-07-13T08:36:08.230Z,64608
2016-07-13T08:37:08.142Z,70080
2016-07-13T08:38:08.171Z,65056
2016-07-13T08:39:08.181Z,43008
2016-07-13T08:40:08.194Z,10404
2016-07-13T08:41:08.176Z,9448
2016-07-13T08:42:08.173Z,35648
2016-07-13T08:43:08.221Z,8380
2016-07-13T08:44:08.146Z,8076
2016-07-13T08:45:08.210Z,9092
2016-07-13T08:46:08.192Z,11612
2016-07-13T08:47:08.189Z,55840
2016-07-13T08:48:08.173Z,51936
2016-07-13T08:49:08.208Z,25056
2016-07-13T08:50:08.608Z,12572
2016-07-13T08:51:08.464Z,10712
2016-07-13T09:03:26.635Z,56480
2016-07-13T09:04:27.910Z,62784
2016-07-13T09:05:26.479Z,28864
2016-07-13T09:06:26.499Z,74112
2016-07-13T09:07:26.653Z,66752
2016-07-13T09:08:26.522Z,51264
2016-07-13T09:09:26.485Z,49888
2016-07-13T09:10:27.824Z,24128
2016-07-13T09:11:26.468Z,51744
2016-07-13T09:12:26.453Z,75488
2016-07-13T09:13:26.459Z,79456
2016-07-13T09:14:26.613Z,84384
2016-07-13T09:24:27.768Z,75840
2016-07-13T09:24:44.906Z,74784
2016-07-13T09:25:45.382Z,16480
2016-07-13T09:26:44.822Z,21408
2016-07-13T09:27:45.737Z,76544
2016-07-13T09:28:45.718Z,82624
2016-07-13T09:29:48.025Z,83296
2016-07-13T09:30:44.928Z,96768
2016-07-13T09:31:45.222Z,97088
2016-07-13T09:32:45.553Z,96640
2016-07-13T09:33:44.885Z,91104
2016-07-13T09:34:44.836Z,90208
2016-07-13T09:35:47.222Z,86656
2016-07-13T09:36:45.404Z,88992
2016-07-13T09:37:45.091Z,99040
2016-07-13T09:38:44.859Z,64000
2016-07-13T09:39:45.058Z,25504
2016-07-13T09:40:44.824Z,21024
2016-07-13T09:41:44.806Z,92736
2016-07-13T09:42:45.108Z,92192
2016-07-13T09:43:44.901Z,92384
2016-07-13T09:44:44.863Z,15420
2016-07-13T09:45:46.380Z,12964
2016-07-13T09:46:44.955Z,12940
2016-07-13T09:47:44.889Z,14860
2016-07-13T09:48:57.691Z,18784
2016-07-13T09:49:44.860Z,22816
2016-07-13T09:50:45.913Z,26816
2016-07-13T09:51:48.066Z,22016
2016-07-13T09:52:44.940Z,92800
2016-07-13T09:53:49.235Z,93664
2016-07-13T09:54:45.092Z,91552
2016-07-13T09:55:46.319Z,90336
2016-07-13T09:56:44.877Z,84448
2016-07-13T09:57:47.088Z,85184
2016-07-13T09:58:44.849Z,83744
2016-07-13T09:59:46.727Z,79936
2016-07-13T10:00:45.319Z,75776
2016-07-13T10:01:44.889Z,73600
2016-07-13T10:02:44.955Z,78656
2016-07-13T10:03:44.909Z,80160
2016-07-13T10:04:44.889Z,80544
2016-07-13T10:05:45.038Z,78368
2016-07-13T10:06:44.844Z,74784
2016-07-13T10:07:51.451Z,73024
2016-07-13T10:08:44.859Z,12068
2016-07-13T10:09:44.865Z,9084
2016-07-13T10:10:49.006Z,9204
2016-07-13T10:11:44.962Z,9756
2016-07-13T10:12:44.940Z,10124
2016-07-13T10:13:44.944Z,9360
2016-07-13T10:14:47.173Z,7772
2016-07-13T10:15:44.888Z,7448
2016-07-13T10:16:45.838Z,7928
2016-07-13T10:17:44.873Z,9120
2016-07-13T10:18:46.028Z,10328
2016-07-13T10:19:44.872Z,12472
2016-07-13T10:20:44.952Z,69952
2016-07-13T10:21:49.966Z,11656
2016-07-13T10:34:45.828Z,81056
2016-07-13T10:35:03.012Z,80480
2016-07-13T10:36:02.939Z,98112
2016-07-13T10:37:03.502Z,90400
2016-07-13T10:38:02.891Z,76192
2016-07-13T10:39:05.969Z,84768
2016-07-13T10:40:02.879Z,31008
2016-07-13T10:41:02.851Z,19040
2016-07-13T10:42:04.044Z,67072
2016-07-13T10:43:06.196Z,63776
2016-07-13T10:44:04.015Z,58240
2016-07-13T10:45:02.908Z,48256
2016-07-13T10:46:02.928Z,53312
2016-07-13T10:47:04.025Z,57664
2016-07-13T10:48:05.963Z,53568
2016-07-13T10:49:06.638Z,52096
2016-07-13T10:50:06.871Z,54400
2016-07-13T10:51:03.019Z,78816
2016-07-13T10:52:02.937Z,83008
2016-07-13T10:53:03.646Z,85984
2016-07-13T10:54:02.904Z,88192
2016-07-13T10:55:02.964Z,76128
2016-07-13T10:56:02.932Z,82176
2016-07-13T10:57:02.924Z,27168
2016-07-13T10:58:02.885Z,35392
2016-07-13T10:59:02.936Z,28128
2016-07-13T11:00:06.939Z,35680
2016-07-13T11:01:03.025Z,62816
2016-07-13T11:02:03.192Z,20640
2016-07-13T11:03:03.291Z,69856
2016-07-13T11:04:05.982Z,62624
2016-07-13T11:05:03.065Z,38816
2016-07-13T11:06:03.241Z,40256
2016-07-13T11:07:13.601Z,58336
2016-07-13T11:08:02.977Z,62336
2016-07-13T11:09:03.498Z,66688
2016-07-13T11:10:02.948Z,67264
2016-07-13T11:11:02.956Z,71552
2016-07-13T11:12:02.987Z,69600
2016-07-13T11:13:02.299Z,69184
2016-07-13T11:14:02.949Z,70496
2016-07-13T11:15:02.937Z,76768
2016-07-13T11:16:02.938Z,80160
2016-07-13T11:17:02.930Z,69248
2016-07-13T11:18:02.343Z,14476
2016-07-13T11:19:03.535Z,8796
2016-07-13T11:20:02.955Z,7592
2016-07-13T11:21:02.964Z,7340
2016-07-13T11:22:02.998Z,8024
2016-07-13T11:23:02.966Z,9996
2016-07-13T11:24:02.986Z,11760
2016-07-13T11:25:06.453Z,10736
2016-07-13T11:26:23.292Z,9224
2016-07-13T11:27:03.768Z,8428
2016-07-13T11:28:03.280Z,7932
2016-07-13T11:29:03.133Z,7956
2016-07-13T11:30:02.969Z,8136
2016-07-13T11:31:04.831Z,8972
2016-07-13T11:32:05.443Z,10952
2016-07-13T11:33:04.059Z,14048
2016-07-13T11:34:04.339Z,16896
2016-07-13T11:35:03.002Z,32480
2016-07-13T11:36:03.067Z,35200
2016-07-13T11:37:16.952Z,47552
2016-07-13T11:38:05.377Z,52576
2016-07-13T11:39:05.517Z,33376
2016-07-13T11:40:07.754Z,27264
2016-07-13T11:41:03.694Z,53504
2016-07-13T11:42:12.782Z,61824
2016-07-13T11:43:04.070Z,33184
2016-07-13T11:44:02.956Z,32160
2016-07-13T11:45:17.649Z,35488
2016-07-13T11:46:03.976Z,18304
2016-07-13T11:47:03.752Z,13536
2016-07-13T11:48:03.733Z,19936
2016-07-13T11:49:04.194Z,20608
2016-07-13T11:50:03.031Z,12252
2016-07-13T11:51:02.938Z,9324
2016-07-13T11:52:02.987Z,8900
2016-07-13T11:53:05.460Z,10928
2016-07-13T11:54:03.033Z,37600
2016-07-13T11:55:02.955Z,47680
2016-07-13T11:56:03.032Z,45728
2016-07-13T11:57:03.045Z,42336
2016-07-13T11:58:03.533Z,35168
2016-07-13T11:59:18.137Z,59136
2016-07-13T12:00:02.971Z,66176
2016-07-13T12:01:06.474Z,71904
2016-07-13T12:02:04.100Z,59456
2016-07-13T12:03:02.981Z,57184
2016-07-13T12:04:04.404Z,68928
2016-07-13T12:05:15.762Z,73792
2016-07-13T12:06:02.962Z,75840
2016-07-13T12:07:02.948Z,75872
2016-07-13T12:08:02.949Z,71424
2016-07-13T12:09:03.372Z,77088
2016-07-13T12:10:04.416Z,69856
2016-07-13T12:11:03.708Z,80544
2016-07-13T12:12:04.400Z,95488
2016-07-13T12:13:23.704Z,96896
2016-07-13T12:14:24.785Z,79520
2016-07-13T12:16:21.713Z,20320
2016-07-13T12:16:40.459Z,53216
2016-07-13T12:17:39.173Z,16960
2016-07-13T12:18:39.187Z,12344
2016-07-13T12:19:45.433Z,9596
2016-07-13T12:20:40.168Z,9468
2016-07-13T12:21:40.834Z,12660
2016-07-13T12:22:39.136Z,15740
2016-07-13T12:23:40.355Z,65248
2016-07-13T12:24:48.481Z,71552
2016-07-13T12:25:41.897Z,75712
2016-07-13T12:26:39.175Z,76672
2016-07-13T12:27:39.184Z,68320
2016-07-13T12:28:39.585Z,13324
2016-07-13T12:29:39.152Z,10900
2016-07-13T12:30:40.141Z,9504
2016-07-13T12:31:39.194Z,10540
2016-07-13T12:32:39.229Z,15028
2016-07-13T12:33:39.175Z,44320
2016-07-13T12:34:39.229Z,12920
2016-07-13T12:35:42.020Z,10976
2016-07-13T12:36:39.176Z,9056
2016-07-13T12:37:39.250Z,7344
2016-07-13T12:38:39.313Z,6100
2016-07-13T12:39:57.015Z,5432
2016-07-13T12:40:39.196Z,5464
2016-07-13T12:41:39.201Z,5800
2016-07-13T12:42:42.877Z,6580
2016-07-13T12:43:39.175Z,7040
2016-07-13T12:44:39.192Z,7292
2016-07-13T12:45:39.260Z,7192
2016-07-13T12:46:39.175Z,7432
2016-07-13T12:47:39.208Z,8712
2016-07-13T12:48:46.571Z,11500
2016-07-13T12:49:39.226Z,28160
2016-07-13T12:50:39.224Z,11916
2016-07-13T12:51:39.859Z,12976
2016-07-13T12:52:39.192Z,18272
2016-07-13T12:53:39.204Z,25248
2016-07-13T12:54:41.391Z,17472
2016-07-13T12:55:39.213Z,17312
2016-07-13T12:56:39.169Z,22176
2016-07-13T12:57:39.218Z,30720
2016-07-13T12:59:05.821Z,18368
2016-07-13T12:59:42.610Z,17568
2016-07-13T13:00:40.060Z,14804
2016-07-13T13:01:39.171Z,14852
2016-07-13T13:02:39.243Z,14616
2016-07-13T13:03:39.276Z,12288
2016-07-13T13:04:39.794Z,11772
2016-07-13T13:05:39.189Z,48608
2016-07-13T13:06:49.524Z,13228
2016-07-13T13:07:39.189Z,11748
2016-07-13T13:08:58.970Z,10868
2016-07-13T13:09:39.227Z,10220
2016-07-13T13:10:39.603Z,9376
2016-07-13T13:11:46.556Z,9060
2016-07-13T13:12:45.645Z,9396
2016-07-13T13:13:41.296Z,11988
2016-07-13T13:14:39.228Z,13920
2016-07-13T13:15:39.208Z,24672
2016-07-13T13:16:39.387Z,19008
2016-07-13T13:17:39.595Z,19296
2016-07-13T13:18:41.281Z,17664
2016-07-13T13:19:43.669Z,35072
2016-07-13T13:20:39.277Z,26048
2016-07-13T13:21:39.722Z,22528
2016-07-13T13:22:39.243Z,14928
2016-07-13T13:23:39.330Z,14972
2016-07-13T13:24:42.025Z,12812
2016-07-13T13:25:40.451Z,12496
2016-07-13T13:26:40.578Z,13064
2016-07-13T13:27:54.068Z,12724
2016-07-13T13:28:39.441Z,12476
2016-07-13T13:29:41.783Z,12032
2016-07-13T13:30:52.603Z,11024
2016-07-13T13:31:39.341Z,10316
2016-07-13T13:32:42.381Z,9328
2016-07-13T13:33:39.441Z,8528
2016-07-13T13:34:40.298Z,7684
2016-07-13T13:35:44.632Z,6756
2016-07-13T13:36:39.624Z,5988
2016-07-13T13:37:50.368Z,5388
2016-07-13T13:38:40.516Z,5220
2016-07-13T13:39:42.261Z,5140
2016-07-13T13:40:39.370Z,5092
2016-07-13T13:41:43.418Z,4780
2016-07-13T13:42:39.404Z,4496
2016-07-13T13:43:39.352Z,4524
2016-07-13T13:44:59.489Z,4976
2016-07-13T13:45:39.842Z,5328
2016-07-13T13:46:40.253Z,6756
2016-07-13T13:47:42.945Z,9384
2016-07-13T13:48:55.396Z,10184
2016-07-13T13:49:45.145Z,11636
2016-07-13T13:50:39.248Z,12000
2016-07-13T13:51:40.114Z,12484
2016-07-13T13:52:39.447Z,12444
2016-07-13T13:53:39.240Z,12700
2016-07-13T13:54:40.438Z,12952
2016-07-13T13:56:01.755Z,13080
2016-07-13T13:56:39.251Z,12772
2016-07-13T13:57:39.239Z,12088
2016-07-13T13:58:39.322Z,11596
2016-07-13T13:59:39.267Z,11164
2016-07-13T14:00:43.544Z,10412
2016-07-13T14:01:42.261Z,9240
2016-07-13T14:02:39.233Z,8868
2016-07-13T14:03:40.874Z,8196
2016-07-13T14:04:40.140Z,7388
2016-07-13T14:05:39.200Z,7008
2016-07-13T14:06:39.958Z,6828
2016-07-13T14:07:47.774Z,6764
2016-07-13T14:08:40.598Z,7176
2016-07-13T14:09:47.856Z,7996
2016-07-13T14:10:43.511Z,8768
2016-07-13T14:11:39.983Z,9392